sensor_id;sensor_type;location;lat;lon;timestamp;temperature;humidity
68011;DHT22;54794;48.348;7.878;2023-03-23T00:00:12;16.20;47.40
68011;DHT22;54794;48.348;7.878;2023-03-23T00:02:38;16.20;47.50
68011;DHT22;54794;48.348;7.878;2023-03-23T00:05:05;16.20;47.50
68011;DHT22;54794;48.348;7.878;2023-03-23T00:07:33;16.20;47.90
68011;DHT22;54794;48.348;7.878;2023-03-23T00:10:00;16.20;47.70
68011;DHT22;54794;48.348;7.878;2023-03-23T00:12:29;16.10;47.80
68011;DHT22;54794;48.348;7.878;2023-03-23T00:15:00;16.10;47.90
68011;DHT22;54794;48.348;7.878;2023-03-23T00:17:27;16.10;48.00
68011;DHT22;54794;48.348;7.878;2023-03-23T00:19:54;16.10;48.00
68011;DHT22;54794;48.348;7.878;2023-03-23T00:22:21;16.10;48.20
68011;DHT22;54794;48.348;7.878;2023-03-23T00:24:50;16.10;48.30
68011;DHT22;54794;48.348;7.878;2023-03-23T00:27:17;16.00;48.40
68011;DHT22;54794;48.348;7.878;2023-03-23T00:29:43;16.10;48.50
68011;DHT22;54794;48.348;7.878;2023-03-23T00:32:13;16.10;48.40
68011;DHT22;54794;48.348;7.878;2023-03-23T00:34:40;16.00;48.30
68011;DHT22;54794;48.348;7.878;2023-03-23T00:37:09;16.00;48.40
68011;DHT22;54794;48.348;7.878;2023-03-23T00:39:35;16.00;48.50
68011;DHT22;54794;48.348;7.878;2023-03-23T00:42:04;16.10;48.60
68011;DHT22;54794;48.348;7.878;2023-03-23T00:44:32;16.10;48.80
68011;DHT22;54794;48.348;7.878;2023-03-23T00:47:00;16.00;48.90
68011;DHT22;54794;48.348;7.878;2023-03-23T00:49:27;16.00;48.80
68011;DHT22;54794;48.348;7.878;2023-03-23T00:51:54;16.00;48.80
68011;DHT22;54794;48.348;7.878;2023-03-23T00:54:23;16.00;49.10
68011;DHT22;54794;48.348;7.878;2023-03-23T00:56:51;16.00;49.20
68011;DHT22;54794;48.348;7.878;2023-03-23T00:59:17;16.00;49.20
68011;DHT22;54794;48.348;7.878;2023-03-23T01:01:47;16.00;49.20
68011;DHT22;54794;48.348;7.878;2023-03-23T01:04:13;16.00;49.30
68011;DHT22;54794;48.348;7.878;2023-03-23T01:06:42;16.00;49.30
68011;DHT22;54794;48.348;7.878;2023-03-23T01:09:13;16.00;49.50
68011;DHT22;54794;48.348;7.878;2023-03-23T01:11:44;16.00;49.70
68011;DHT22;54794;48.348;7.878;2023-03-23T01:14:12;16.00;49.90
68011;DHT22;54794;48.348;7.878;2023-03-23T01:16:39;16.00;49.60
68011;DHT22;54794;48.348;7.878;2023-03-23T01:19:05;16.00;49.50
68011;DHT22;54794;48.348;7.878;2023-03-23T01:21:31;16.00;49.60
68011;DHT22;54794;48.348;7.878;2023-03-23T01:23:57;16.00;49.60
68011;DHT22;54794;48.348;7.878;2023-03-23T01:26:25;16.00;49.90
68011;DHT22;54794;48.348;7.878;2023-03-23T01:28:52;16.00;49.90
68011;DHT22;54794;48.348;7.878;2023-03-23T01:31:21;16.00;49.90
68011;DHT22;54794;48.348;7.878;2023-03-23T01:33:48;16.00;49.90
68011;DHT22;54794;48.348;7.878;2023-03-23T01:36:22;16.00;49.90
68011;DHT22;54794;48.348;7.878;2023-03-23T01:38:52;16.00;50.20
68011;DHT22;54794;48.348;7.878;2023-03-23T01:41:19;16.00;50.20
68011;DHT22;54794;48.348;7.878;2023-03-23T01:43:59;16.00;50.00
68011;DHT22;54794;48.348;7.878;2023-03-23T01:46:32;16.00;50.60
68011;DHT22;54794;48.348;7.878;2023-03-23T01:49:08;16.00;50.10
68011;DHT22;54794;48.348;7.878;2023-03-23T01:51:51;16.00;50.80
68011;DHT22;54794;48.348;7.878;2023-03-23T01:54:20;16.00;50.90
68011;DHT22;54794;48.348;7.878;2023-03-23T01:56:52;16.00;50.20
68011;DHT22;54794;48.348;7.878;2023-03-23T01:59:23;16.00;50.40
68011;DHT22;54794;48.348;7.878;2023-03-23T02:01:53;16.00;50.30
68011;DHT22;54794;48.348;7.878;2023-03-23T02:04:21;16.00;50.30
68011;DHT22;54794;48.348;7.878;2023-03-23T02:06:48;16.00;50.40
68011;DHT22;54794;48.348;7.878;2023-03-23T02:09:14;16.00;50.30
68011;DHT22;54794;48.348;7.878;2023-03-23T02:11:43;16.10;50.40
68011;DHT22;54794;48.348;7.878;2023-03-23T02:14:13;16.10;50.40
68011;DHT22;54794;48.348;7.878;2023-03-23T02:23:23;16.10;51.50
68011;DHT22;54794;48.348;7.878;2023-03-23T02:29:32;16.10;50.40
68011;DHT22;54794;48.348;7.878;2023-03-23T02:32:04;16.10;50.70
68011;DHT22;54794;48.348;7.878;2023-03-23T02:35:06;16.10;50.70
68011;DHT22;54794;48.348;7.878;2023-03-23T02:37:50;16.10;50.70
68011;DHT22;54794;48.348;7.878;2023-03-23T02:40:49;16.10;50.70
68011;DHT22;54794;48.348;7.878;2023-03-23T02:43:18;16.10;50.80
68011;DHT22;54794;48.348;7.878;2023-03-23T02:45:48;16.20;50.60
68011;DHT22;54794;48.348;7.878;2023-03-23T02:48:18;16.20;50.50
68011;DHT22;54794;48.348;7.878;2023-03-23T02:50:50;16.20;50.70
68011;DHT22;54794;48.348;7.878;2023-03-23T02:53:21;16.20;50.60
68011;DHT22;54794;48.348;7.878;2023-03-23T02:55:50;16.20;50.70
68011;DHT22;54794;48.348;7.878;2023-03-23T02:58:19;16.20;50.60
68011;DHT22;54794;48.348;7.878;2023-03-23T03:00:45;16.20;50.60
68011;DHT22;54794;48.348;7.878;2023-03-23T03:03:17;16.20;50.50
68011;DHT22;54794;48.348;7.878;2023-03-23T03:05:57;16.30;50.60
68011;DHT22;54794;48.348;7.878;2023-03-23T03:08:39;16.30;50.40
68011;DHT22;54794;48.348;7.878;2023-03-23T03:11:16;16.30;50.20
68011;DHT22;54794;48.348;7.878;2023-03-23T03:13:49;16.30;50.10
68011;DHT22;54794;48.348;7.878;2023-03-23T03:16:32;16.40;50.50
68011;DHT22;54794;48.348;7.878;2023-03-23T03:19:12;16.50;50.20
68011;DHT22;54794;48.348;7.878;2023-03-23T03:21:44;16.50;50.00
68011;DHT22;54794;48.348;7.878;2023-03-23T03:24:15;16.60;49.90
68011;DHT22;54794;48.348;7.878;2023-03-23T03:26:49;16.60;50.30
68011;DHT22;54794;48.348;7.878;2023-03-23T03:29:21;16.70;49.70
68011;DHT22;54794;48.348;7.878;2023-03-23T03:31:50;16.70;49.50
68011;DHT22;54794;48.348;7.878;2023-03-23T03:34:22;16.80;49.40
68011;DHT22;54794;48.348;7.878;2023-03-23T03:36:51;16.90;49.40
68011;DHT22;54794;48.348;7.878;2023-03-23T03:39:20;16.90;49.30
68011;DHT22;54794;48.348;7.878;2023-03-23T03:41:48;17.00;49.30
68011;DHT22;54794;48.348;7.878;2023-03-23T03:44:14;17.10;49.70
68011;DHT22;54794;48.348;7.878;2023-03-23T03:46:40;17.10;49.10
68011;DHT22;54794;48.348;7.878;2023-03-23T03:49:08;17.20;49.10
68011;DHT22;54794;48.348;7.878;2023-03-23T03:51:37;17.20;49.00
68011;DHT22;54794;48.348;7.878;2023-03-23T03:54:04;17.20;48.90
68011;DHT22;54794;48.348;7.878;2023-03-23T03:56:30;17.30;48.90
68011;DHT22;54794;48.348;7.878;2023-03-23T03:59:07;17.30;48.80
68011;DHT22;54794;48.348;7.878;2023-03-23T04:01:36;17.40;48.80
68011;DHT22;54794;48.348;7.878;2023-03-23T04:04:03;17.40;48.80
68011;DHT22;54794;48.348;7.878;2023-03-23T04:06:33;17.40;48.60
68011;DHT22;54794;48.348;7.878;2023-03-23T04:09:03;17.40;48.60
68011;DHT22;54794;48.348;7.878;2023-03-23T04:11:32;17.50;48.60
68011;DHT22;54794;48.348;7.878;2023-03-23T04:13:58;17.50;48.60
68011;DHT22;54794;48.348;7.878;2023-03-23T04:16:24;17.60;48.60
68011;DHT22;54794;48.348;7.878;2023-03-23T04:18:51;17.60;48.50
68011;DHT22;54794;48.348;7.878;2023-03-23T04:21:17;17.60;48.30
68011;DHT22;54794;48.348;7.878;2023-03-23T04:23:43;17.60;48.30
68011;DHT22;54794;48.348;7.878;2023-03-23T04:26:09;17.60;48.30
68011;DHT22;54794;48.348;7.878;2023-03-23T04:28:39;17.70;48.30
68011;DHT22;54794;48.348;7.878;2023-03-23T04:31:06;17.70;48.30
68011;DHT22;54794;48.348;7.878;2023-03-23T04:33:38;17.70;48.20
68011;DHT22;54794;48.348;7.878;2023-03-23T04:36:06;17.70;48.10
68011;DHT22;54794;48.348;7.878;2023-03-23T04:38:32;17.70;48.10
68011;DHT22;54794;48.348;7.878;2023-03-23T04:40:59;17.80;48.20
68011;DHT22;54794;48.348;7.878;2023-03-23T04:43:27;17.80;48.10
68011;DHT22;54794;48.348;7.878;2023-03-23T04:45:58;17.80;48.10
68011;DHT22;54794;48.348;7.878;2023-03-23T04:48:27;17.80;47.90
68011;DHT22;54794;48.348;7.878;2023-03-23T04:50:55;17.80;47.90
68011;DHT22;54794;48.348;7.878;2023-03-23T04:53:21;17.80;47.90
68011;DHT22;54794;48.348;7.878;2023-03-23T04:55:48;17.80;47.90
68011;DHT22;54794;48.348;7.878;2023-03-23T04:58:15;17.80;47.80
68011;DHT22;54794;48.348;7.878;2023-03-23T05:00:42;17.80;48.20
68011;DHT22;54794;48.348;7.878;2023-03-23T05:03:10;17.90;47.90
68011;DHT22;54794;48.348;7.878;2023-03-23T05:05:36;17.80;47.80
68011;DHT22;54794;48.348;7.878;2023-03-23T05:08:03;17.90;48.00
68011;DHT22;54794;48.348;7.878;2023-03-23T05:10:29;17.90;47.80
68011;DHT22;54794;48.348;7.878;2023-03-23T05:12:55;17.80;47.70
68011;DHT22;54794;48.348;7.878;2023-03-23T05:15:21;17.80;47.70
68011;DHT22;54794;48.348;7.878;2023-03-23T05:17:47;17.90;47.80
68011;DHT22;54794;48.348;7.878;2023-03-23T05:20:15;17.80;47.70
68011;DHT22;54794;48.348;7.878;2023-03-23T05:22:46;17.80;47.80
68011;DHT22;54794;48.348;7.878;2023-03-23T05:25:16;17.80;48.30
68011;DHT22;54794;48.348;7.878;2023-03-23T05:27:46;17.90;47.80
68011;DHT22;54794;48.348;7.878;2023-03-23T05:30:19;17.80;47.80
68011;DHT22;54794;48.348;7.878;2023-03-23T05:32:47;17.80;47.80
68011;DHT22;54794;48.348;7.878;2023-03-23T05:35:18;17.80;47.90
68011;DHT22;54794;48.348;7.878;2023-03-23T05:37:46;17.90;47.90
68011;DHT22;54794;48.348;7.878;2023-03-23T05:40:12;17.80;47.90
68011;DHT22;54794;48.348;7.878;2023-03-23T05:42:39;17.80;47.90
68011;DHT22;54794;48.348;7.878;2023-03-23T05:45:08;17.80;47.90
68011;DHT22;54794;48.348;7.878;2023-03-23T05:47:37;17.90;48.00
68011;DHT22;54794;48.348;7.878;2023-03-23T05:50:05;17.80;47.90
68011;DHT22;54794;48.348;7.878;2023-03-23T05:52:32;17.80;47.90
68011;DHT22;54794;48.348;7.878;2023-03-23T05:55:01;17.80;47.90
68011;DHT22;54794;48.348;7.878;2023-03-23T05:57:29;17.80;47.90
68011;DHT22;54794;48.348;7.878;2023-03-23T05:59:56;17.80;48.00
68011;DHT22;54794;48.348;7.878;2023-03-23T06:02:24;17.80;48.10
68011;DHT22;54794;48.348;7.878;2023-03-23T06:04:53;17.80;48.10
68011;DHT22;54794;48.348;7.878;2023-03-23T06:07:36;17.80;48.10
68011;DHT22;54794;48.348;7.878;2023-03-23T06:10:14;17.80;48.20
68011;DHT22;54794;48.348;7.878;2023-03-23T06:12:47;17.80;48.10
68011;DHT22;54794;48.348;7.878;2023-03-23T06:15:19;17.80;48.30
68011;DHT22;54794;48.348;7.878;2023-03-23T06:18:20;17.80;48.30
68011;DHT22;54794;48.348;7.878;2023-03-23T06:20:53;17.80;48.20
68011;DHT22;54794;48.348;7.878;2023-03-23T06:23:22;17.80;48.20
68011;DHT22;54794;48.348;7.878;2023-03-23T06:26:53;17.80;48.30
68011;DHT22;54794;48.348;7.878;2023-03-23T06:32:54;17.80;48.40
68011;DHT22;54794;48.348;7.878;2023-03-23T06:35:50;17.80;48.30
68011;DHT22;54794;48.348;7.878;2023-03-23T06:38:17;17.80;48.30
68011;DHT22;54794;48.348;7.878;2023-03-23T06:40:52;17.80;48.80
68011;DHT22;54794;48.348;7.878;2023-03-23T06:43:33;17.70;48.40
68011;DHT22;54794;48.348;7.878;2023-03-23T06:46:09;17.70;48.40
68011;DHT22;54794;48.348;7.878;2023-03-23T06:49:05;17.70;48.40
68011;DHT22;54794;48.348;7.878;2023-03-23T06:51:34;17.70;48.40
68011;DHT22;54794;48.348;7.878;2023-03-23T06:54:06;17.70;48.50
68011;DHT22;54794;48.348;7.878;2023-03-23T06:56:38;17.70;48.40
68011;DHT22;54794;48.348;7.878;2023-03-23T06:59:13;17.70;48.40
68011;DHT22;54794;48.348;7.878;2023-03-23T07:01:54;17.70;48.60
68011;DHT22;54794;48.348;7.878;2023-03-23T07:08:16;17.70;48.80
68011;DHT22;54794;48.348;7.878;2023-03-23T07:11:17;17.70;48.60
68011;DHT22;54794;48.348;7.878;2023-03-23T07:20:56;17.70;49.00
68011;DHT22;54794;48.348;7.878;2023-03-23T07:23:40;17.60;48.90
68011;DHT22;54794;48.348;7.878;2023-03-23T07:26:07;17.70;48.80
68011;DHT22;54794;48.348;7.878;2023-03-23T07:28:41;17.60;48.80
68011;DHT22;54794;48.348;7.878;2023-03-23T07:31:43;17.70;49.00
68011;DHT22;54794;48.348;7.878;2023-03-23T07:34:20;17.70;49.00
68011;DHT22;54794;48.348;7.878;2023-03-23T07:36:49;17.60;49.00
68011;DHT22;54794;48.348;7.878;2023-03-23T07:39:15;17.70;49.10
68011;DHT22;54794;48.348;7.878;2023-03-23T07:42:11;17.70;49.10
68011;DHT22;54794;48.348;7.878;2023-03-23T07:44:52;17.70;49.50
68011;DHT22;54794;48.348;7.878;2023-03-23T07:47:18;17.60;49.10
68011;DHT22;54794;48.348;7.878;2023-03-23T07:49:43;17.70;49.20
68011;DHT22;54794;48.348;7.878;2023-03-23T07:52:09;17.70;49.30
68011;DHT22;54794;48.348;7.878;2023-03-23T07:54:36;17.70;49.30
68011;DHT22;54794;48.348;7.878;2023-03-23T07:57:02;17.60;49.30
68011;DHT22;54794;48.348;7.878;2023-03-23T07:59:28;17.70;49.40
68011;DHT22;54794;48.348;7.878;2023-03-23T08:01:54;17.70;49.40
68011;DHT22;54794;48.348;7.878;2023-03-23T08:04:20;17.60;49.40
68011;DHT22;54794;48.348;7.878;2023-03-23T08:06:46;17.70;49.50
68011;DHT22;54794;48.348;7.878;2023-03-23T08:09:12;17.70;49.40
68011;DHT22;54794;48.348;7.878;2023-03-23T08:11:38;17.70;49.50
68011;DHT22;54794;48.348;7.878;2023-03-23T08:14:05;17.70;50.00
68011;DHT22;54794;48.348;7.878;2023-03-23T08:16:31;17.70;49.60
68011;DHT22;54794;48.348;7.878;2023-03-23T08:18:58;17.70;49.70
68011;DHT22;54794;48.348;7.878;2023-03-23T08:21:24;17.70;49.60
68011;DHT22;54794;48.348;7.878;2023-03-23T08:24:25;17.70;49.70
68011;DHT22;54794;48.348;7.878;2023-03-23T08:26:52;17.70;49.70
68011;DHT22;54794;48.348;7.878;2023-03-23T08:29:51;17.70;49.60
68011;DHT22;54794;48.348;7.878;2023-03-23T08:38:07;17.80;50.10
68011;DHT22;54794;48.348;7.878;2023-03-23T08:40:48;17.80;50.30
68011;DHT22;54794;48.348;7.878;2023-03-23T08:47:51;17.70;50.30
68011;DHT22;54794;48.348;7.878;2023-03-23T08:54:14;17.70;50.50
68011;DHT22;54794;48.348;7.878;2023-03-23T08:56:59;17.70;50.30
68011;DHT22;54794;48.348;7.878;2023-03-23T08:59:26;17.70;50.40
68011;DHT22;54794;48.348;7.878;2023-03-23T09:05:59;17.70;50.80
68011;DHT22;54794;48.348;7.878;2023-03-23T09:08:29;17.80;50.60
68011;DHT22;54794;48.348;7.878;2023-03-23T09:11:04;17.80;50.60
68011;DHT22;54794;48.348;7.878;2023-03-23T09:13:38;17.90;50.70
68011;DHT22;54794;48.348;7.878;2023-03-23T09:16:10;17.90;50.70
68011;DHT22;54794;48.348;7.878;2023-03-23T09:18:41;17.90;50.50
68011;DHT22;54794;48.348;7.878;2023-03-23T09:21:20;18.00;50.60
68011;DHT22;54794;48.348;7.878;2023-03-23T09:23:56;18.00;50.90
68011;DHT22;54794;48.348;7.878;2023-03-23T09:26:36;18.10;50.90
68011;DHT22;54794;48.348;7.878;2023-03-23T09:29:02;18.20;50.90
68011;DHT22;54794;48.348;7.878;2023-03-23T09:31:30;18.30;50.80
68011;DHT22;54794;48.348;7.878;2023-03-23T09:34:00;18.30;50.70
68011;DHT22;54794;48.348;7.878;2023-03-23T09:36:28;18.40;50.80
68011;DHT22;54794;48.348;7.878;2023-03-23T09:39:06;18.50;50.80
68011;DHT22;54794;48.348;7.878;2023-03-23T09:42:01;18.50;50.70
68011;DHT22;54794;48.348;7.878;2023-03-23T09:47:56;18.60;50.80
68011;DHT22;54794;48.348;7.878;2023-03-23T09:50:28;18.70;50.60
68011;DHT22;54794;48.348;7.878;2023-03-23T09:53:05;18.70;50.30
68011;DHT22;54794;48.348;7.878;2023-03-23T09:55:38;18.70;50.70
68011;DHT22;54794;48.348;7.878;2023-03-23T09:58:36;18.80;50.20
68011;DHT22;54794;48.348;7.878;2023-03-23T10:01:20;18.80;50.20
68011;DHT22;54794;48.348;7.878;2023-03-23T10:03:55;18.90;50.10
68011;DHT22;54794;48.348;7.878;2023-03-23T10:06:27;18.90;50.10
68011;DHT22;54794;48.348;7.878;2023-03-23T10:08:56;18.90;50.10
68011;DHT22;54794;48.348;7.878;2023-03-23T10:12:06;19.00;50.10
68011;DHT22;54794;48.348;7.878;2023-03-23T10:15:19;19.00;50.10
68011;DHT22;54794;48.348;7.878;2023-03-23T10:20:19;19.10;49.90
68011;DHT22;54794;48.348;7.878;2023-03-23T10:26:10;19.00;49.80
68011;DHT22;54794;48.348;7.878;2023-03-23T10:28:54;19.10;49.90
68011;DHT22;54794;48.348;7.878;2023-03-23T10:31:27;19.10;49.80
68011;DHT22;54794;48.348;7.878;2023-03-23T10:34:03;19.10;49.90
68011;DHT22;54794;48.348;7.878;2023-03-23T10:36:56;19.10;49.70
68011;DHT22;54794;48.348;7.878;2023-03-23T10:39:32;19.10;49.80
68011;DHT22;54794;48.348;7.878;2023-03-23T10:42:11;19.20;49.90
68011;DHT22;54794;48.348;7.878;2023-03-23T10:44:40;19.20;49.90
68011;DHT22;54794;48.348;7.878;2023-03-23T10:50:46;19.30;49.80
68011;DHT22;54794;48.348;7.878;2023-03-23T10:53:44;19.40;49.90
68011;DHT22;54794;48.348;7.878;2023-03-23T10:56:40;19.50;49.80
68011;DHT22;54794;48.348;7.878;2023-03-23T10:59:29;19.50;49.80
68011;DHT22;54794;48.348;7.878;2023-03-23T11:02:45;19.70;49.80
68011;DHT22;54794;48.348;7.878;2023-03-23T11:09:21;19.80;49.50
68011;DHT22;54794;48.348;7.878;2023-03-23T11:12:24;20.00;49.50
68011;DHT22;54794;48.348;7.878;2023-03-23T11:18:21;20.10;49.10
68011;DHT22;54794;48.348;7.878;2023-03-23T11:21:12;20.20;48.90
68011;DHT22;54794;48.348;7.878;2023-03-23T11:24:14;20.20;48.90
68011;DHT22;54794;48.348;7.878;2023-03-23T11:26:59;20.40;48.80
68011;DHT22;54794;48.348;7.878;2023-03-23T11:29:48;20.30;48.70
68011;DHT22;54794;48.348;7.878;2023-03-23T11:35:29;20.30;48.40
68011;DHT22;54794;48.348;7.878;2023-03-23T11:38:22;20.30;48.50
68011;DHT22;54794;48.348;7.878;2023-03-23T11:40:56;20.50;48.60
68011;DHT22;54794;48.348;7.878;2023-03-23T11:43:24;20.30;48.50
68011;DHT22;54794;48.348;7.878;2023-03-23T11:49:42;20.30;48.60
68011;DHT22;54794;48.348;7.878;2023-03-23T11:55:53;20.30;48.50
68011;DHT22;54794;48.348;7.878;2023-03-23T11:58:45;20.30;48.40
68011;DHT22;54794;48.348;7.878;2023-03-23T12:07:42;20.30;48.50
68011;DHT22;54794;48.348;7.878;2023-03-23T12:13:50;20.20;48.70
68011;DHT22;54794;48.348;7.878;2023-03-23T12:16:48;20.30;48.50
68011;DHT22;54794;48.348;7.878;2023-03-23T12:22:44;20.30;48.50
68011;DHT22;54794;48.348;7.878;2023-03-23T12:30:55;20.40;48.70
68011;DHT22;54794;48.348;7.878;2023-03-23T12:33:53;20.50;48.80
68011;DHT22;54794;48.348;7.878;2023-03-23T12:42:33;20.60;48.70
68011;DHT22;54794;48.348;7.878;2023-03-23T12:47:45;20.70;48.50
68011;DHT22;54794;48.348;7.878;2023-03-23T12:50:30;20.80;48.40
68011;DHT22;54794;48.348;7.878;2023-03-23T12:53:13;20.80;48.50
68011;DHT22;54794;48.348;7.878;2023-03-23T12:58:39;20.80;48.60
68011;DHT22;54794;48.348;7.878;2023-03-23T13:01:25;20.90;48.50
68011;DHT22;54794;48.348;7.878;2023-03-23T13:07:06;21.00;48.30
68011;DHT22;54794;48.348;7.878;2023-03-23T13:10:02;21.00;48.30
68011;DHT22;54794;48.348;7.878;2023-03-23T13:12:30;21.00;48.10
68011;DHT22;54794;48.348;7.878;2023-03-23T13:15:00;21.00;48.20
68011;DHT22;54794;48.348;7.878;2023-03-23T13:20:57;21.10;48.30
68011;DHT22;54794;48.348;7.878;2023-03-23T13:23:45;21.00;48.10
68011;DHT22;54794;48.348;7.878;2023-03-23T13:26:20;21.10;47.80
68011;DHT22;54794;48.348;7.878;2023-03-23T13:31:33;21.10;48.10
68011;DHT22;54794;48.348;7.878;2023-03-23T13:34:24;21.10;48.00
68011;DHT22;54794;48.348;7.878;2023-03-23T13:37:04;21.10;47.40
68011;DHT22;54794;48.348;7.878;2023-03-23T13:39:36;21.10;48.00
68011;DHT22;54794;48.348;7.878;2023-03-23T13:45:07;21.10;47.90
68011;DHT22;54794;48.348;7.878;2023-03-23T13:47:41;21.20;47.90
68011;DHT22;54794;48.348;7.878;2023-03-23T13:50:10;21.20;47.10
68011;DHT22;54794;48.348;7.878;2023-03-23T13:52:56;21.20;47.60
68011;DHT22;54794;48.348;7.878;2023-03-23T14:05:40;21.20;46.50
68011;DHT22;54794;48.348;7.878;2023-03-23T14:10:37;21.20;46.70
68011;DHT22;54794;48.348;7.878;2023-03-23T14:13:14;21.10;46.50
68011;DHT22;54794;48.348;7.878;2023-03-23T14:15:55;21.20;46.20
68011;DHT22;54794;48.348;7.878;2023-03-23T14:18:25;21.10;46.30
68011;DHT22;54794;48.348;7.878;2023-03-23T14:20:56;21.10;46.20
68011;DHT22;54794;48.348;7.878;2023-03-23T14:23:23;21.10;46.10
68011;DHT22;54794;48.348;7.878;2023-03-23T14:25:58;21.00;46.10
68011;DHT22;54794;48.348;7.878;2023-03-23T14:28:31;20.90;45.60
68011;DHT22;54794;48.348;7.878;2023-03-23T14:31:01;20.90;45.70
68011;DHT22;54794;48.348;7.878;2023-03-23T14:33:27;20.90;46.10
68011;DHT22;54794;48.348;7.878;2023-03-23T14:35:56;20.90;46.00
68011;DHT22;54794;48.348;7.878;2023-03-23T14:38:25;20.80;46.00
68011;DHT22;54794;48.348;7.878;2023-03-23T14:41:02;20.80;45.50
68011;DHT22;54794;48.348;7.878;2023-03-23T14:43:29;20.70;45.70
68011;DHT22;54794;48.348;7.878;2023-03-23T14:46:00;20.70;45.80
68011;DHT22;54794;48.348;7.878;2023-03-23T14:48:30;20.70;45.70
68011;DHT22;54794;48.348;7.878;2023-03-23T14:51:02;20.70;45.80
68011;DHT22;54794;48.348;7.878;2023-03-23T14:53:39;20.70;45.70
68011;DHT22;54794;48.348;7.878;2023-03-23T14:56:15;20.70;45.60
68011;DHT22;54794;48.348;7.878;2023-03-23T14:58:47;20.60;45.10
68011;DHT22;54794;48.348;7.878;2023-03-23T15:01:18;20.60;45.70
68011;DHT22;54794;48.348;7.878;2023-03-23T15:04:01;20.70;45.80
68011;DHT22;54794;48.348;7.878;2023-03-23T15:07:03;20.60;45.70
68011;DHT22;54794;48.348;7.878;2023-03-23T15:09:31;20.70;45.20
68011;DHT22;54794;48.348;7.878;2023-03-23T15:12:03;20.70;45.50
68011;DHT22;54794;48.348;7.878;2023-03-23T15:14:46;20.70;45.80
68011;DHT22;54794;48.348;7.878;2023-03-23T15:17:22;20.70;45.80
68011;DHT22;54794;48.348;7.878;2023-03-23T15:19:51;20.70;45.70
68011;DHT22;54794;48.348;7.878;2023-03-23T15:22:26;20.70;45.70
68011;DHT22;54794;48.348;7.878;2023-03-23T15:25:07;20.70;45.50
68011;DHT22;54794;48.348;7.878;2023-03-23T15:27:41;20.70;45.30
68011;DHT22;54794;48.348;7.878;2023-03-23T15:32:59;20.70;45.50
68011;DHT22;54794;48.348;7.878;2023-03-23T15:35:39;20.60;44.90
68011;DHT22;54794;48.348;7.878;2023-03-23T15:38:22;20.60;45.30
68011;DHT22;54794;48.348;7.878;2023-03-23T15:40:52;20.50;45.10
68011;DHT22;54794;48.348;7.878;2023-03-23T15:51:28;20.40;45.50
68011;DHT22;54794;48.348;7.878;2023-03-23T15:53:56;20.50;45.60
68011;DHT22;54794;48.348;7.878;2023-03-23T15:56:23;20.40;45.80
68011;DHT22;54794;48.348;7.878;2023-03-23T15:58:51;20.40;45.70
68011;DHT22;54794;48.348;7.878;2023-03-23T16:01:22;20.40;46.20
68011;DHT22;54794;48.348;7.878;2023-03-23T16:06:33;20.40;45.70
68011;DHT22;54794;48.348;7.878;2023-03-23T16:09:01;20.30;45.60
68011;DHT22;54794;48.348;7.878;2023-03-23T16:11:31;20.30;45.50
68011;DHT22;54794;48.348;7.878;2023-03-23T16:13:59;20.30;45.60
68011;DHT22;54794;48.348;7.878;2023-03-23T16:16:32;20.20;45.50
68011;DHT22;54794;48.348;7.878;2023-03-23T16:19:02;20.30;45.60
68011;DHT22;54794;48.348;7.878;2023-03-23T16:21:31;20.20;45.70
68011;DHT22;54794;48.348;7.878;2023-03-23T16:23:58;20.20;45.70
68011;DHT22;54794;48.348;7.878;2023-03-23T16:26:25;20.20;45.50
68011;DHT22;54794;48.348;7.878;2023-03-23T16:28:52;20.10;45.50
68011;DHT22;54794;48.348;7.878;2023-03-23T16:31:35;20.10;45.60
68011;DHT22;54794;48.348;7.878;2023-03-23T16:34:02;20.10;45.60
68011;DHT22;54794;48.348;7.878;2023-03-23T16:36:29;20.00;45.60
68011;DHT22;54794;48.348;7.878;2023-03-23T16:38:56;20.00;45.60
68011;DHT22;54794;48.348;7.878;2023-03-23T16:41:23;20.00;45.70
68011;DHT22;54794;48.348;7.878;2023-03-23T16:43:50;20.00;45.60
68011;DHT22;54794;48.348;7.878;2023-03-23T16:46:17;20.00;45.60
68011;DHT22;54794;48.348;7.878;2023-03-23T16:48:45;19.90;45.60
68011;DHT22;54794;48.348;7.878;2023-03-23T16:51:12;19.90;45.60
68011;DHT22;54794;48.348;7.878;2023-03-23T16:53:39;19.90;45.60
68011;DHT22;54794;48.348;7.878;2023-03-23T16:56:06;19.90;45.60
68011;DHT22;54794;48.348;7.878;2023-03-23T16:58:33;19.90;45.60
68011;DHT22;54794;48.348;7.878;2023-03-23T17:01:01;19.90;45.40
68011;DHT22;54794;48.348;7.878;2023-03-23T17:03:29;19.80;45.50
68011;DHT22;54794;48.348;7.878;2023-03-23T17:05:59;19.80;45.50
68011;DHT22;54794;48.348;7.878;2023-03-23T17:08:27;19.80;45.60
68011;DHT22;54794;48.348;7.878;2023-03-23T17:10:54;19.80;45.60
68011;DHT22;54794;48.348;7.878;2023-03-23T17:13:21;19.80;45.30
68011;DHT22;54794;48.348;7.878;2023-03-23T17:15:52;19.80;45.60
68011;DHT22;54794;48.348;7.878;2023-03-23T17:18:23;19.70;45.60
68011;DHT22;54794;48.348;7.878;2023-03-23T17:20:52;19.70;45.60
68011;DHT22;54794;48.348;7.878;2023-03-23T17:23:19;19.70;45.70
68011;DHT22;54794;48.348;7.878;2023-03-23T17:25:47;19.70;45.80
68011;DHT22;54794;48.348;7.878;2023-03-23T17:28:14;19.60;45.70
68011;DHT22;54794;48.348;7.878;2023-03-23T17:30:42;19.70;45.80
68011;DHT22;54794;48.348;7.878;2023-03-23T17:33:11;19.60;45.70
68011;DHT22;54794;48.348;7.878;2023-03-23T17:35:41;19.60;45.80
68011;DHT22;54794;48.348;7.878;2023-03-23T17:38:09;19.60;45.80
68011;DHT22;54794;48.348;7.878;2023-03-23T17:40:37;19.60;45.80
68011;DHT22;54794;48.348;7.878;2023-03-23T17:43:04;19.60;45.90
68011;DHT22;54794;48.348;7.878;2023-03-23T17:45:33;19.60;45.90
68011;DHT22;54794;48.348;7.878;2023-03-23T17:48:00;19.60;45.90
68011;DHT22;54794;48.348;7.878;2023-03-23T17:50:27;19.60;45.90
68011;DHT22;54794;48.348;7.878;2023-03-23T17:52:54;19.60;46.00
68011;DHT22;54794;48.348;7.878;2023-03-23T17:55:22;19.50;45.90
68011;DHT22;54794;48.348;7.878;2023-03-23T17:57:49;19.50;46.00
68011;DHT22;54794;48.348;7.878;2023-03-23T18:00:17;19.50;45.90
68011;DHT22;54794;48.348;7.878;2023-03-23T18:02:44;19.50;46.00
68011;DHT22;54794;48.348;7.878;2023-03-23T18:05:11;19.50;46.00
68011;DHT22;54794;48.348;7.878;2023-03-23T18:07:38;19.50;46.50
68011;DHT22;54794;48.348;7.878;2023-03-23T18:10:21;19.50;46.00
68011;DHT22;54794;48.348;7.878;2023-03-23T18:12:49;19.70;46.10
68011;DHT22;54794;48.348;7.878;2023-03-23T18:15:18;19.50;46.10
68011;DHT22;54794;48.348;7.878;2023-03-23T18:17:45;19.50;46.10
68011;DHT22;54794;48.348;7.878;2023-03-23T18:20:14;19.40;46.10
68011;DHT22;54794;48.348;7.878;2023-03-23T18:22:40;19.50;46.10
68011;DHT22;54794;48.348;7.878;2023-03-23T18:25:08;19.40;46.10
68011;DHT22;54794;48.348;7.878;2023-03-23T18:27:35;19.40;46.20